Meteo Giornale » Osservazioni meteo Italia » Monte Scuro

ore: 06:55 - Osservazioni Meteo Monte Scuro
Lat. 39° 20' N Lon. 16° 24' E Alt. 1710 metri s.l.m.

sereno

18 °C

Sereno

Temp. 24 Ore

17 °C

23 °C

Est

9.3 Km/h

Dew point 8 °C

Umidità 51 %

Visibilità  20 Km

Il sole sorge alle ore 06:23

Il sole tramonta alle ore 19:24

Data e Ora Cielo e Fenomeni T °C DP °C Um. % Pres. hPa Vis. km Vento km/h
Oggi h: 06:55 sereno Sereno 18 8 51 1027 20 E 9.3
Oggi h: 05:55 sereno Sereno 17 11 67 1027 20 E 11.1
Oggi h: 04:55 sereno Sereno 17 14 82 1027 20 E 11.1
Oggi h: 03:55 sereno Sereno 17 15 88 1027 20 E 11.1
Oggi h: 02:55 sereno Sereno 18 15 82 1027 20 E 9.3
Oggi h: 01:55 sereno Sereno 17 16 93 1027 12 E 11.1
Oggi h: 00:55 sereno Sereno 18 15 82 1027 12 E 11.1
Ieri h: 23:55 sereno Sereno 18 14 77 1027 12 E 11.1
Ieri h: 22:55 sereno Sereno 18 14 77 1027 12 E 11.1
Ieri h: 21:55 sereno Sereno 18 15 82 1028 12 E/NE 7.4
Ieri h: 20:55 sereno Sereno 18 17 93 1027 12 E 11.1
Ieri h: 19:55 sereno Sereno 18 14 77 1027 12 NE 9.3
Ieri h: 18:55 sereno Sereno 19 16 82 1026 12 N 3.7
Ieri h: 17:55 sereno Sereno 20 17 82 1027 12 N 5.5
Ieri h: 16:55 sereno Sereno 21 18 82 1027 11 N 5.5
Ieri h: 15:55 sereno Sereno 22 18 78 1026 11 N 5.5
Ieri h: 14:55 sereno Sereno 23 17 68 1027 11 N 3.7
Ieri h: 13:55 sereno Sereno 22 16 68 1027 11 N 3.7
Ieri h: 12:55 sereno Sereno 22 16 68 1027 11 N 3.7
Ieri h: 11:55 sereno Sereno 22 16 68 1027 11 N 3.7
Ieri h: 10:55 sereno Sereno 21 15 68 1027 11 N 5.5
Ieri h: 09:55 sereno Sereno 21 15 68 1026 11 N 5.5
Ieri h: 08:55 sereno Sereno 20 16 77 1026 11 E 11.1